Time;durP1;ratioP1;P1;durP2;ratioP2;P2;SDS_P1;SDS_P2;PMS_P1;PMS_P2;Temp;Humidity;BMP_temperature;BMP_pressure;BME280_temperature;BME280_humidity;BME280_pressure;Samples;Min_cycle;Max_cycle;Signal;HPM_P1;HPM_P2
2023/07/24 00:00:22;;;;;;;13.88;5.63;;;;;;;;;;5017553;28;20049;-79
2023/07/24 00:02:48;;;;;;;14.15;6.35;;;;;;;;;;5017257;28;20739;-79
2023/07/24 00:05:14;;;;;;;13.80;5.88;;;;;;;;;;5017166;28;20415;-76
2023/07/24 00:07:40;;;;;;;10.57;6.45;;;;;;;;;;5015661;28;20068;-77
2023/07/24 00:10:07;;;;;;;13.32;6.88;;;;;;;;;;5013956;28;20124;-78
2023/07/24 00:12:33;;;;;;;9.55;6.38;;;;;;;;;;5016120;28;20045;-79
2023/07/24 00:14:59;;;;;;;11.40;6.30;;;;;;;;;;5016988;28;20723;-77
2023/07/24 00:17:26;;;;;;;9.82;6.32;;;;;;;;;;5016911;28;20874;-76
2023/07/24 00:19:52;;;;;;;11.18;6.05;;;;;;;;;;5015297;28;20045;-76
2023/07/24 00:22:18;;;;;;;10.55;6.18;;;;;;;;;;5017150;28;20124;-78
2023/07/24 00:24:44;;;;;;;12.75;6.65;;;;;;;;;;5017318;28;20578;-77
2023/07/24 00:27:10;;;;;;;10.48;7.10;;;;;;;;;;5011455;28;20048;-77
2023/07/24 00:29:36;;;;;;;11.95;6.45;;;;;;;;;;4991017;28;20038;-78
2023/07/24 00:32:02;;;;;;;11.07;5.68;;;;;;;;;;5017115;28;20152;-77
2023/07/24 00:34:28;;;;;;;12.07;6.72;;;;;;;;;;5001891;28;20502;-78
2023/07/24 00:36:54;;;;;;;16.05;8.40;;;;;;;;;;5021055;28;20115;-77
2023/07/24 00:39:20;;;;;;;14.75;7.00;;;;;;;;;;5021112;28;20049;-77
2023/07/24 00:41:46;;;;;;;12.13;6.80;;;;;;;;;;5004559;28;20475;-77
2023/07/24 00:44:13;;;;;;;12.98;7.57;;;;;;;;;;5004804;28;20060;-77
2023/07/24 00:46:39;;;;;;;14.30;7.65;;;;;;;;;;5021060;28;20107;-78
2023/07/24 00:49:05;;;;;;;13.20;7.30;;;;;;;;;;5021203;28;20107;-77
2023/07/24 00:51:32;;;;;;;13.30;7.20;;;;;;;;;;5003657;28;20053;-78
2023/07/24 00:54:00;;;;;;;10.40;7.13;;;;;;;;;;5020797;28;20134;-77
2023/07/24 00:56:27;;;;;;;14.43;7.97;;;14.70;99.90;;;;;;5021086;28;20046;-78
2023/07/24 00:58:57;;;;;;;16.23;8.93;;;;;;;;;;5020380;28;20887;-79
2023/07/24 01:01:24;;;;;;;12.98;9.35;;;;;;;;;;5020550;28;20503;-78
2023/07/24 01:03:50;;;;;;;12.82;9.70;;;;;;;;;;5020481;28;20619;-81
2023/07/24 01:06:16;;;;;;;16.55;9.77;;;;;;;;;;5004185;28;20471;-76
2023/07/24 01:08:42;;;;;;;18.52;12.00;;;;;;;;;;5021372;28;20578;-79
2023/07/24 01:11:28;;;;;;;17.88;11.93;;;14.80;99.90;;;;;;5019561;28;20084;-77
2023/07/24 01:14:03;;;;;;;17.33;12.50;;;14.70;99.90;;;;;;5014029;28;20124;-78
2023/07/24 01:16:36;;;;;;;17.88;12.15;;;14.80;99.90;;;;;;5016874;28;20158;-78
2023/07/24 01:19:11;;;;;;;19.85;14.40;;;14.80;99.90;;;;;;5049570;28;20492;-78
2023/07/24 01:21:57;;;;;;;20.63;14.82;;;14.80;99.90;;;;;;5023175;28;20349;-79
2023/07/24 01:24:42;;;;;;;20.38;15.00;;;;;;;;;;5023807;28;20552;-77
2023/07/24 01:27:08;;;;;;;24.05;14.90;;;;;;;;;;5022317;28;20139;-77
2023/07/24 01:29:34;;;;;;;22.38;14.40;;;;;;;;;;5020693;28;20056;-79
2023/07/24 01:32:00;;;;;;;27.15;17.27;;;;;;;;;;5021070;28;20049;-79
2023/07/24 01:34:26;;;;;;;24.48;15.30;;;;;;;;;;5020583;28;20550;-78
2023/07/24 01:36:53;;;;;;;23.58;15.52;;;;;;;;;;5020286;28;20056;-78
2023/07/24 01:39:20;;;;;;;22.52;15.75;;;14.80;99.90;;;;;;5003678;28;20056;-79
2023/07/24 01:41:47;;;;;;;22.45;16.13;;;;;;;;;;5053116;28;20582;-79
2023/07/24 01:44:13;;;;;;;25.42;17.13;;;;;;;;;;5021569;28;20048;-79
2023/07/24 01:46:39;;;;;;;30.98;17.42;;;;;;;;;;5020291;28;20072;-79
2023/07/24 01:49:05;;;;;;;22.30;16.13;;;;;;;;;;5015578;28;20048;-79
2023/07/24 01:51:31;;;;;;;21.33;15.48;;;;;;;;;;5021071;28;20700;-80
2023/07/24 01:53:57;;;;;;;24.73;17.15;;;;;;;;;;5021071;28;20049;-78
2023/07/24 01:56:24;;;;;;;27.77;17.35;;;;;;;;;;5020707;28;20053;-78
2023/07/24 01:58:50;;;;;;;22.08;16.70;;;;;;;;;;5020781;28;20056;-78
2023/07/24 02:01:16;;;;;;;25.55;16.50;;;;;;;;;;5020463;28;20060;-78
2023/07/24 02:03:42;;;;;;;23.20;16.75;;;;;;;;;;5020787;28;20057;-79
2023/07/24 02:06:08;;;;;;;24.00;16.13;;;;;;;;;;5004304;28;20695;-77
2023/07/24 02:08:34;;;;;;;26.58;16.48;;;;;;;;;;5020532;28;20415;-78
2023/07/24 02:11:00;;;;;;;20.08;15.30;;;;;;;;;;5013509;28;20495;-77
2023/07/24 02:13:26;;;;;;;24.40;16.15;;;;;;;;;;5020017;28;20073;-79
2023/07/24 02:15:53;;;;;;;22.02;15.30;;;;;;;;;;5020248;28;20078;-78
2023/07/24 02:18:19;;;;;;;24.08;15.88;;;;;;;;;;5016290;28;20049;-79
2023/07/24 02:20:50;;;;;;;22.25;15.50;;;15.00;99.90;;;;;;5019506;28;20049;-78
2023/07/24 02:23:16;;;;;;;23.73;15.38;;;;;;;;;;5054938;28;20080;-78
2023/07/24 02:25:42;;;;;;;28.33;17.40;;;;;;;;;;5022381;28;20104;-79
2023/07/24 02:28:09;;;;;;;24.00;16.42;;;;;;;;;;5005096;28;20084;-78
2023/07/24 02:30:38;;;;;;;22.60;15.93;;;14.90;99.90;;;;;;5020377;28;20065;-78
2023/07/24 02:33:04;;;;;;;24.77;17.30;;;;;;;;;;5019283;28;20414;-77
2023/07/24 02:35:31;;;;;;;24.67;16.48;;;;;;;;;;5018217;28;20080;-75
2023/07/24 02:37:57;;;;;;;22.20;15.70;;;;;;;;;;5018162;28;20057;-78
2023/07/24 02:40:23;;;;;;;27.05;16.63;;;;;;;;;;5018576;28;20057;-79
2023/07/24 02:42:49;;;;;;;26.00;16.55;;;;;;;;;;5020506;28;20411;-78
2023/07/24 02:45:15;;;;;;;23.88;16.05;;;;;;;;;;5019352;28;20061;-78
2023/07/24 02:47:42;;;;;;;26.77;17.33;;;;;;;;;;5010135;28;20049;-79
2023/07/24 02:50:08;;;;;;;22.38;15.63;;;;;;;;;;5012189;28;20068;-77
2023/07/24 02:52:34;;;;;;;24.95;16.98;;;;;;;;;;5019367;28;20115;-80
2023/07/24 02:55:00;;;;;;;24.40;15.23;;;;;;;;;;5016800;28;20137;-80
2023/07/24 02:57:26;;;;;;;27.08;16.05;;;;;;;;;;5018985;28;20050;-79
2023/07/24 02:59:52;;;;;;;22.52;15.63;;;;;;;;;;5018332;28;20053;-81
2023/07/24 03:02:19;;;;;;;22.05;14.90;;;;;;;;;;5018540;28;20075;-80
2023/07/24 03:04:45;;;;;;;24.83;15.73;;;;;;;;;;5018295;28;20046;-80
2023/07/24 03:07:11;;;;;;;23.65;14.88;;;;;;;;;;5018349;28;20650;-80
2023/07/24 03:09:37;;;;;;;23.88;15.98;;;;;;;;;;5018049;28;20234;-79
2023/07/24 03:12:03;;;;;;;23.77;15.32;;;;;;;;;;5017677;28;20176;-79
2023/07/24 03:14:29;;;;;;;24.85;16.23;;;;;;;;;;5018229;28;20451;-79
2023/07/24 03:16:55;;;;;;;27.30;15.77;;;;;;;;;;5014610;28;20045;-80
2023/07/24 03:19:21;;;;;;;30.17;15.38;;;;;;;;;;5006771;28;20077;-79
2023/07/24 03:21:47;;;;;;;24.63;15.43;;;;;;;;;;5018775;28;20053;-78
2023/07/24 03:24:13;;;;;;;23.55;14.52;;;;;;;;;;5019057;28;20060;-76
2023/07/24 03:26:40;;;;;;;24.95;13.70;;;;;;;;;;5018601;28;20499;-78
2023/07/24 03:29:06;;;;;;;19.98;12.32;;;;;;;;;;5018732;28;20056;-78
2023/07/24 03:31:32;;;;;;;23.17;13.65;;;;;;;;;;5018106;28;20060;-79
2023/07/24 03:33:58;;;;;;;22.88;13.63;;;;;;;;;;5018264;28;20044;-78
2023/07/24 03:36:24;;;;;;;24.83;13.38;;;;;;;;;;5018143;28;20065;-77
2023/07/24 03:38:50;;;;;;;20.92;12.40;;;;;;;;;;5018312;28;20051;-74
2023/07/24 03:41:16;;;;;;;24.50;14.15;;;;;;;;;;5017764;28;20103;-81
2023/07/24 03:43:42;;;;;;;23.95;13.70;;;;;;;;;;5018202;28;20076;-80
2023/07/24 03:46:09;;;;;;;23.27;14.02;;;;;;;;;;5018417;28;20892;-80
2023/07/24 03:48:36;;;;;;;23.13;14.27;;;;;;;;;;5015675;28;20041;-79
2023/07/24 03:51:02;;;;;;;22.60;13.68;;;;;;;;;;5018228;28;20826;-78
2023/07/24 03:53:29;;;;;;;22.65;13.27;;;;;;;;;;5017881;28;20056;-80
2023/07/24 03:55:55;;;;;;;27.25;14.20;;;;;;;;;;5017937;28;20514;-77
2023/07/24 03:58:21;;;;;;;26.42;14.63;;;;;;;;;;5017722;28;20045;-81
2023/07/24 04:00:47;;;;;;;24.27;13.90;;;;;;;;;;5017236;28;20513;-80
2023/07/24 04:03:14;;;;;;;20.27;13.32;;;;;;;;;;5018013;28;20053;-80
2023/07/24 04:05:40;;;;;;;22.05;13.52;;;;;;;;;;5017702;28;20129;-80
2023/07/24 04:08:06;;;;;;;22.92;13.43;;;;;;;;;;5017751;28;20778;-80
2023/07/24 04:10:32;;;;;;;23.85;13.18;;;;;;;;;;5019455;28;20056;-79
2023/07/24 04:12:58;;;;;;;30.70;15.10;;;;;;;;;;5020872;28;20059;-81
2023/07/24 04:15:24;;;;;;;25.90;14.60;;;;;;;;;;5021274;28;20060;-80
2023/07/24 04:17:50;;;;;;;26.35;14.00;;;;;;;;;;5016070;28;20049;-81
2023/07/24 04:20:16;;;;;;;31.90;14.90;;;;;;;;;;5021464;28;20049;-81
2023/07/24 04:22:42;;;;;;;24.08;13.85;;;;;;;;;;5002127;28;20046;-79
2023/07/24 04:25:08;;;;;;;23.05;13.88;;;15.70;99.90;;;;;;5021467;28;20768;-81
2023/07/24 04:27:34;;;;;;;20.10;13.70;;;;;;;;;;5022925;28;20126;-80
2023/07/24 04:30:00;;;;;;;26.75;13.82;;;;;;;;;;5025404;28;20076;-80
2023/07/24 04:32:29;;;;;;;19.75;12.82;;;15.10;99.90;;;;;;5022845;28;20049;-81
2023/07/24 04:34:56;;;;;;;23.70;13.75;;;;;;;;;;5022294;28;20233;-80
2023/07/24 04:37:22;;;;;;;24.38;13.70;;;;;;;;;;5015835;28;20068;-79
2023/07/24 04:39:48;;;;;;;26.85;14.57;;;;;;;;;;5022161;28;20057;-79
2023/07/24 04:42:14;;;;;;;22.20;13.82;;;;;;;;;;5024934;28;20064;-79
2023/07/24 04:44:40;;;;;;;23.60;13.60;;;;;;;;;;5024185;28;20153;-80
2023/07/24 04:47:06;;;;;;;23.02;13.85;;;;;;;;;;5023173;28;20045;-78
2023/07/24 04:49:32;;;;;;;20.83;14.25;;;;;;;;;;5018932;28;20106;-83
2023/07/24 04:51:59;;;;;;;21.23;13.77;;;15.30;99.90;;;;;;5022720;28;20685;-80
2023/07/24 04:54:25;;;;;;;20.25;12.88;;;;;;;;;;5023285;28;20666;-80
2023/07/24 04:56:51;;;;;;;20.98;13.60;;;;;;;;;;5022372;28;20052;-79
2023/07/24 04:59:17;;;;;;;18.92;13.18;;;;;;;;;;5022127;28;20080;-81
2023/07/24 05:01:44;;;;;;;21.27;12.73;;;;;;;;;;5028775;28;20049;-79
2023/07/24 05:04:10;;;;;;;24.10;14.95;;;;;;;;;;5015956;28;20089;-81
2023/07/24 05:06:38;;;;;;;22.08;13.93;;;;;;;;;;5021289;28;20057;-81
2023/07/24 05:09:04;;;;;;;25.38;14.82;;;;;;;;;;5022094;28;20124;-81
2023/07/24 05:11:30;;;;;;;23.08;14.25;;;;;;;;;;5021651;28;20045;-80
2023/07/24 05:13:56;;;;;;;24.45;14.18;;;;;;;;;;5022501;28;20084;-80
2023/07/24 05:16:22;;;;;;;19.35;13.52;;;;;;;;;;5024124;28;20080;-80
2023/07/24 05:18:48;;;;;;;23.65;13.60;;;;;;;;;;5017377;28;20056;-80
2023/07/24 05:21:14;;;;;;;20.52;13.75;;;;;;;;;;5007886;28;20944;-79
2023/07/24 05:23:40;;;;;;;20.92;13.10;;;;;;;;;;5005466;28;20110;-80
2023/07/24 05:26:07;;;;;;;20.52;13.35;;;;;;;;;;5003179;28;20141;-80
2023/07/24 05:28:33;;;;;;;20.83;13.68;;;;;;;;;;5023576;28;20049;-79
2023/07/24 05:31:03;;;;;;;23.67;13.32;;;15.70;99.90;;;;;;5024748;28;20053;-80
2023/07/24 05:33:30;;;;;;;18.60;12.90;;;15.70;99.90;;;;;;5050336;28;20045;-80
2023/07/24 05:36:03;;;;;;;18.70;13.05;;;15.40;99.90;;;;;;5027695;28;20067;-81
2023/07/24 05:38:29;;;;;;;21.08;14.68;;;;;;;;;;5019175;28;20057;-79
2023/07/24 05:41:00;;;;;;;21.55;15.02;;;15.90;99.90;;;;;;5011555;28;20156;-80
2023/07/24 05:43:27;;;;;;;18.02;13.50;;;;;;;;;;5003464;28;20045;-79
2023/07/24 05:45:54;;;;;;;19.63;13.65;;;16.20;99.90;;;;;;5014089;28;20049;-80
2023/07/24 05:48:21;;;;;;;18.90;14.10;;;;;;;;;;5046088;28;20111;-81
2023/07/24 05:50:47;;;;;;;17.90;13.65;;;;;;;;;;5019422;28;20050;-79
2023/07/24 05:53:13;;;;;;;20.02;14.38;;;;;;;;;;5021330;28;20155;-80
2023/07/24 05:55:40;;;;;;;19.65;13.07;;;;;;;;;;5005103;28;20118;-81
2023/07/24 05:58:06;;;;;;;18.70;13.02;;;;;;;;;;5002884;28;20049;-80
2023/07/24 06:00:32;;;;;;;15.23;12.23;;;;;;;;;;5018586;28;20053;-80
2023/07/24 06:02:58;;;;;;;17.30;12.68;;;;;;;;;;5021200;28;20060;-81
2023/07/24 06:05:24;;;;;;;18.83;13.05;;;;;;;;;;5019350;28;20060;-79
2023/07/24 06:07:50;;;;;;;14.88;12.20;;;;;;;;;;5022744;28;20045;-79
2023/07/24 06:10:16;;;;;;;15.23;12.18;;;;;;;;;;5005491;28;20057;-80
2023/07/24 06:12:43;;;;;;;15.55;13.18;;;;;;;;;;4999060;28;20600;-79
2023/07/24 06:15:09;;;;;;;15.25;11.48;;;;;;;;;;5017374;28;20045;-79
2023/07/24 06:17:35;;;;;;;14.55;11.57;;;;;;;;;;5016851;28;20406;-79
2023/07/24 06:20:01;;;;;;;15.30;11.80;;;;;;;;;;5021572;28;20073;-79
2023/07/24 06:22:27;;;;;;;14.20;11.15;;;;;;;;;;5021958;28;20057;-79
2023/07/24 06:24:53;;;;;;;14.73;11.50;;;;;;;;;;5020723;28;20053;-77
2023/07/24 06:27:20;;;;;;;16.38;11.68;;;;;;;;;;5016939;28;20136;-79
2023/07/24 06:29:46;;;;;;;15.90;9.85;;;;;;;;;;5015602;28;20096;-79
2023/07/24 06:32:12;;;;;;;12.77;10.38;;;;;;;;;;5019684;28;20184;-77
2023/07/24 06:34:38;;;;;;;13.00;10.75;;;;;;;;;;5020331;28;20044;-77
2023/07/24 06:37:04;;;;;;;12.27;9.63;;;;;;;;;;5020800;28;20774;-78
2023/07/24 06:39:30;;;;;;;12.82;10.25;;;;;;;;;;5022877;28;20053;-79
2023/07/24 06:41:57;;;;;;;11.55;8.80;;;;;;;;;;5024240;28;20048;-79
2023/07/24 06:44:23;;;;;;;12.18;9.75;;;;;;;;;;5022525;28;20499;-79
2023/07/24 06:46:49;;;;;;;12.85;10.00;;;;;;;;;;5019021;28;20087;-78
2023/07/24 06:49:15;;;;;;;13.20;9.98;;;;;;;;;;5010103;28;20067;-79
2023/07/24 06:51:41;;;;;;;11.90;8.35;;;;;;;;;;5004820;28;20037;-80
2023/07/24 06:54:07;;;;;;;9.88;8.38;;;;;;;;;;5005283;28;20147;-79
2023/07/24 06:56:33;;;;;;;14.45;7.95;;;;;;;;;;5006344;28;20056;-80
2023/07/24 06:58:59;;;;;;;11.10;8.50;;;;;;;;;;5008747;28;20098;-79
2023/07/24 07:01:26;;;;;;;12.63;8.80;;;;;;;;;;5021883;28;20060;-78
2023/07/24 07:03:52;;;;;;;10.48;8.57;;;;;;;;;;5019163;28;20056;-79
2023/07/24 07:06:18;;;;;;;11.48;7.75;;;;;;;;;;5019685;28;20049;-79
2023/07/24 07:08:44;;;;;;;13.65;8.55;;;;;;;;;;5017253;28;20056;-79
2023/07/24 07:11:10;;;;;;;11.65;8.60;;;;;;;;;;5017855;28;20134;-79
2023/07/24 07:13:36;;;;;;;10.85;8.20;;;;;;;;;;5003229;28;20053;-78
2023/07/24 07:16:02;;;;;;;9.55;8.13;;;;;;;;;;5022400;28;20451;-78
2023/07/24 07:18:28;;;;;;;10.77;7.43;;;;;;;;;;5016288;28;20140;-79
2023/07/24 07:20:55;;;;;;;11.25;8.15;;;;;;;;;;5019357;28;20075;-78
2023/07/24 07:23:21;;;;;;;11.15;7.32;;;;;;;;;;5022931;28;20052;-78
2023/07/24 07:25:49;;;;;;;10.98;8.02;;;;;;;;;;5000722;28;20057;-80
2023/07/24 07:28:16;;;;;;;11.23;7.82;;;;;;;;;;5025301;28;20144;-78
2023/07/24 07:30:42;;;;;;;11.00;7.88;;;19.70;99.90;;;;;;5003180;28;20056;-78
2023/07/24 07:33:09;;;;;;;9.15;6.93;;;;;;;;;;5023136;28;20140;-78
2023/07/24 07:35:36;;;;;;;10.10;6.93;;;19.90;99.90;;;;;;5019745;28;20091;-77
2023/07/24 07:38:02;;;;;;;12.40;7.60;;;20.30;99.90;;;;;;5020653;28;20600;-78
2023/07/24 07:40:28;;;;;;;10.98;6.70;;;;;;;;;;5004482;28;20051;-79
2023/07/24 07:42:55;;;;;;;10.00;7.65;;;;;;;;;;5025398;28;20525;-78
2023/07/24 07:45:21;;;;;;;12.93;7.20;;;;;;;;;;5016874;28;20506;-78
2023/07/24 07:47:47;;;;;;;10.43;7.35;;;;;;;;;;5003334;28;20049;-77
2023/07/24 07:50:13;;;;;;;11.93;7.93;;;;;;;;;;5002539;28;20049;-77
2023/07/24 07:52:40;;;;;;;8.30;6.28;;;;;;;;;;5021282;28;20045;-77
2023/07/24 07:55:06;;;;;;;9.25;6.40;;;;;;;;;;5020433;28;20057;-78
2023/07/24 07:57:34;;;;;;;10.73;6.45;;;;;;;;;;5000803;28;20045;-78
2023/07/24 08:00:01;;;;;;;10.85;6.25;;;;;;;;;;5012079;28;20143;-79
2023/07/24 08:02:27;;;;;;;8.18;6.20;;;;;;;;;;5025209;28;20034;-77
2023/07/24 08:04:53;;;;;;;11.23;6.28;;;;;;;;;;5022113;28;20057;-77
2023/07/24 08:07:19;;;;;;;8.68;6.25;;;;;;;;;;5017278;28;20054;-78
2023/07/24 08:09:46;;;;;;;9.57;6.63;;;20.80;99.90;;;;;;5012232;28;20497;-78
2023/07/24 08:12:12;;;;;;;7.40;5.90;;;;;;;;;;5019664;28;20049;-78
2023/07/24 08:14:38;;;;;;;9.32;6.82;;;;;;;;;;5009667;28;20538;-78
2023/07/24 08:17:04;;;;;;;9.77;6.50;;;;;;;;;;5017723;28;20045;-78
2023/07/24 08:19:30;;;;;;;7.60;6.43;;;;;;;;;;5012044;28;20060;-77
2023/07/24 08:21:56;;;;;;;10.50;6.90;;;;;;;;;;5009096;28;20057;-77
2023/07/24 08:24:23;;;;;;;10.25;6.90;;;;;;;;;;5008670;28;20616;-77
2023/07/24 08:26:49;;;;;;;8.30;5.72;;;;;;;;;;5010825;28;20058;-78
2023/07/24 08:29:15;;;;;;;11.63;6.43;;;;;;;;;;5007458;28;20979;-78
2023/07/24 08:31:45;;;;;;;10.63;6.28;;;;;;;;;;5008841;28;20952;-80
2023/07/24 08:34:11;;;;;;;11.23;5.60;;;;;;;;;;4996786;28;20442;-78
2023/07/24 08:36:38;;;;;;;10.23;5.80;;;;;;;;;;4991874;28;20076;-79
2023/07/24 08:39:06;;;;;;;7.78;5.32;;;17.70;99.90;;;;;;5011638;28;20052;-79
2023/07/24 08:41:34;;;;;;;10.05;6.03;;;;;;;;;;5025057;28;20646;-79
2023/07/24 08:44:05;;;;;;;14.55;6.13;;;23.60;99.90;;;;;;4993424;28;20507;-78
2023/07/24 08:46:40;;;;;;;8.23;5.03;;;25.40;99.90;;;;;;5023178;28;20057;-78
2023/07/24 08:49:14;;;;;;;8.20;4.55;;;26.30;99.90;;;;;;4993499;28;20173;-79
2023/07/24 08:51:41;;;;;;;5.63;4.47;;;26.10;99.90;;;;;;5007874;28;20046;-78
2023/07/24 08:54:08;;;;;;;7.38;4.88;;;25.40;99.90;;;;;;5007411;28;20045;-79
2023/07/24 08:56:34;;;;;;;6.18;4.47;;;;;;;;;;5009138;28;20059;-78
2023/07/24 08:59:00;;;;;;;6.43;4.05;;;;;;;;;;4997029;28;20692;-77
2023/07/24 09:01:26;;;;;;;7.75;4.82;;;;;;;;;;5010439;28;20060;-81
2023/07/24 09:03:53;;;;;;;10.73;5.10;;;;;;;;;;4998415;28;20111;-78
2023/07/24 09:06:22;;;;;;;10.00;5.25;;;22.30;99.90;;;;;;4972407;28;20176;-78
2023/07/24 09:09:03;;;;;;;7.80;4.68;;;24.50;99.90;;;;;;4970853;28;20056;-79
2023/07/24 09:11:32;;;;;;;7.90;4.05;;;25.10;99.90;;;;;;4998071;28;20054;-79
2023/07/24 09:14:03;;;;;;;7.68;4.35;;;25.90;99.90;;;;;;4978803;28;20858;-79
2023/07/24 09:16:32;;;;;;;8.30;4.53;;;26.10;99.80;;;;;;4999557;28;20095;-79
2023/07/24 09:19:02;;;;;;;9.25;4.88;;;25.70;98.90;;;;;;4978505;28;20057;-80
2023/07/24 09:21:32;;;;;;;8.30;4.40;;;25.30;99.00;;;;;;5008891;28;21531;-78
2023/07/24 09:24:17;;;;;;;7.25;4.32;;;25.00;99.10;;;;;;4972029;28;20297;-78
2023/07/24 09:26:56;;;;;;;6.65;4.35;;;25.20;99.30;;;;;;4979672;28;20454;-78
2023/07/24 09:29:30;;;;;;;9.63;4.80;;;25.40;99.90;;;;;;4972999;28;20742;-78
2023/07/24 09:31:57;;;;;;;9.00;4.65;;;25.50;99.00;;;;;;5001211;28;20056;-81
2023/07/24 09:34:25;;;;;;;8.15;4.18;;;26.10;98.70;;;;;;4995521;28;20057;-78
2023/07/24 09:36:54;;;;;;;9.82;4.53;;;27.20;98.30;;;;;;5013145;28;20083;-79
2023/07/24 09:39:47;;;;;;;8.10;4.40;;;28.00;96.80;;;;;;4976225;28;20495;-79
2023/07/24 09:42:16;;;;;;;9.88;4.38;;;28.40;97.80;;;;;;4966760;28;20130;-78
2023/07/24 09:44:44;;;;;;;5.93;3.38;;;28.30;95.60;;;;;;4979839;28;20057;-78
2023/07/24 09:47:14;;;;;;;6.95;3.72;;;28.00;95.20;;;;;;4982119;28;20707;-79
2023/07/24 09:49:42;;;;;;;;;;;27.60;94.60;;;;;;5008706;28;20061;-79
2023/07/24 09:52:19;;;;;;;6.50;3.60;;;27.40;98.90;;;;;;4986293;28;19931;-79
2023/07/24 09:55:10;;;;;;;7.32;3.95;;;27.70;98.80;;;;;;4996121;28;20165;-79
2023/07/24 09:57:36;;;;;;;7.45;3.97;;;;;;;;;;4987783;28;20049;-80
2023/07/24 10:00:03;;;;;;;9.20;4.45;;;27.10;96.70;;;;;;5001193;28;20089;-80
2023/07/24 10:02:29;;;;;;;9.63;4.05;;;;;;;;;;4995768;28;20143;-82
2023/07/24 10:04:56;;;;;;;7.90;3.50;;;26.30;95.10;;;;;;5005162;28;20064;-83
2023/07/24 10:07:28;;;;;;;7.30;3.08;;;26.30;95.50;;;;;;4995945;28;20065;-77
2023/07/24 10:09:55;;;;;;;6.72;3.20;;;27.60;97.20;;;;;;4989143;28;20898;-79
2023/07/24 10:12:22;;;;;;;8.48;3.72;;;27.50;96.20;;;;;;5002615;28;20061;-81
2023/07/24 10:14:49;;;;;;;8.68;3.13;;;28.30;92.90;;;;;;4999248;28;20154;-79
2023/07/24 10:17:34;;;;;;;5.85;3.50;;;28.60;92.90;;;;;;4980854;28;20073;-82
2023/07/24 10:20:10;;;;;;;9.43;3.58;;;28.40;92.80;;;;;;5000970;28;20052;-80
2023/07/24 10:22:41;;;;;;;6.85;3.03;;;30.10;94.70;;;;;;4990528;28;20064;-78
2023/07/24 10:25:09;;;;;;;3.97;2.30;;;29.50;93.60;;;;;;5014051;28;20057;-82
2023/07/24 10:27:46;;;;;;;5.47;2.70;;;29.80;92.90;;;;;;4976133;28;20479;-78
2023/07/24 10:30:13;;;;;;;3.78;2.20;;;;;;;;;;5002770;28;20053;-82
2023/07/24 10:32:51;;;;;;;3.95;2.05;;;30.10;85.70;;;;;;5015801;28;20057;-79
2023/07/24 10:35:20;;;;;;;7.15;2.20;;;30.40;85.60;;;;;;4985131;28;20077;-80
2023/07/24 10:37:46;;;;;;;4.43;2.38;;;;;;;;;;5053730;28;20103;-79
2023/07/24 10:40:22;;;;;;;4.38;2.30;;;29.60;85.10;;;;;;5024038;28;20589;-78
2023/07/24 10:43:06;;;;;;;4.15;1.92;;;28.90;79.60;;;;;;5022495;28;20053;-80
2023/07/24 10:45:52;;;;;;;4.60;2.63;;;29.80;80.30;;;;;;5019544;28;20521;-80
2023/07/24 10:48:20;;;;;;;7.90;2.60;;;30.00;79.50;;;;;;5018070;28;20049;-79
2023/07/24 10:50:48;;;;;;;5.75;2.53;;;30.10;78.40;;;;;;5018778;28;20367;-78
2023/07/24 10:53:20;;;;;;;5.57;2.00;;;30.10;79.00;;;;;;5002210;28;20679;-80
2023/07/24 10:55:50;;;;;;;;;;;29.90;78.10;;;;;;5051699;28;20056;-80
2023/07/24 10:58:16;;;;;;;6.35;2.38;;;29.00;84.00;;;;;;5019005;28;20888;-82
2023/07/24 11:00:43;;;;;;;3.95;1.98;;;28.40;80.30;;;;;;5035671;28;20103;-82
2023/07/24 11:03:14;;;;;;;4.60;2.03;;;28.00;80.80;;;;;;5018636;28;20129;-78
2023/07/24 11:05:40;;;;;;;4.65;1.95;;;27.30;80.90;;;;;;5018267;28;20081;-80
2023/07/24 11:08:15;;;;;;;6.45;2.47;;;26.80;81.70;;;;;;5018693;28;20057;-79
2023/07/24 11:10:52;;;;;;;6.88;2.63;;;26.20;83.80;;;;;;5017740;28;20056;-79
2023/07/24 11:13:19;;;;;;;5.68;2.65;;;25.80;86.20;;;;;;5017577;28;20404;-79
2023/07/24 11:15:47;;;;;;;6.13;2.70;;;25.50;87.50;;;;;;5017842;28;20080;-81
2023/07/24 11:18:14;;;;;;;5.82;3.40;;;25.10;89.90;;;;;;5019049;28;20662;-80
2023/07/24 11:20:55;;;;;;;5.65;2.65;;;25.50;89.30;;;;;;5002089;28;20084;-78
2023/07/24 11:23:22;;;;;;;6.13;2.75;;;25.40;91.00;;;;;;5035458;28;20056;-80
2023/07/24 11:25:53;;;;;;;7.97;3.15;;;25.60;90.30;;;;;;5023053;28;20088;-80
2023/07/24 11:28:19;;;;;;;8.10;2.97;;;25.60;90.90;;;;;;5006885;28;20053;-78
2023/07/24 11:30:45;;;;;;;7.40;3.90;;;;;;;;;;5021135;28;20141;-80
2023/07/24 11:33:13;;;;;;;6.05;3.50;;;25.20;90.30;;;;;;5020728;28;20053;-78
2023/07/24 11:35:42;;;;;;;5.82;3.25;;;25.30;90.50;;;;;;5019300;28;20404;-78
2023/07/24 11:38:09;;;;;;;6.03;3.22;;;25.10;90.70;;;;;;5052610;28;20389;-79
2023/07/24 11:40:37;;;;;;;6.80;3.13;;;25.00;90.90;;;;;;5018965;28;20115;-79
2023/07/24 11:43:04;;;;;;;5.63;2.83;;;25.00;91.20;;;;;;5019205;28;20208;-79
2023/07/24 11:45:31;;;;;;;5.18;2.60;;;24.60;93.70;;;;;;5019153;28;20096;-81
2023/07/24 11:47:57;;;;;;;4.70;3.15;;;24.40;94.10;;;;;;5018744;28;20065;-79
2023/07/24 11:50:24;;;;;;;7.22;3.47;;;23.90;91.70;;;;;;5018317;28;20053;-80
2023/07/24 11:52:51;;;;;;;7.88;3.10;;;23.50;92.40;;;;;;5018326;28;20174;-81
2023/07/24 11:55:32;;;;;;;7.63;3.50;;;23.30;93.10;;;;;;5018841;28;20045;-82
2023/07/24 11:58:03;;;;;;;7.70;3.42;;;23.10;93.70;;;;;;5020164;28;20049;-80
2023/07/24 12:00:32;;;;;;;6.85;3.45;;;23.00;94.20;;;;;;5019432;28;20049;-81
2023/07/24 12:03:04;;;;;;;7.45;3.72;;;23.00;95.00;;;;;;5019336;28;20141;-80
2023/07/24 12:05:30;;;;;;;9.73;3.63;;;;;;;;;;5019284;28;20820;-77
2023/07/24 12:07:56;;;;;;;6.35;3.53;;;;;;;;;;5002879;28;20053;-80
2023/07/24 12:10:27;;;;;;;7.90;3.67;;;23.50;95.70;;;;;;5051553;28;20091;-80
2023/07/24 12:12:55;;;;;;;9.05;3.63;;;23.60;95.70;;;;;;5017767;28;20045;-73
2023/07/24 12:15:24;;;;;;;7.75;3.80;;;;;;;;;;5016806;28;20570;-81
2023/07/24 12:17:50;;;;;;;7.70;3.88;;;;;;;;;;5017421;28;20065;-81
2023/07/24 12:20:16;;;;;;;7.45;3.22;;;;;;;;;;5017952;28;20048;-80
2023/07/24 12:22:42;;;;;;;7.75;3.47;;;;;;;;;;4999139;28;20049;-80
2023/07/24 12:25:08;;;;;;;7.50;3.53;;;24.40;98.60;;;;;;5011741;28;20053;-77
2023/07/24 12:27:33;;;;;;;7.03;4.25;;;24.40;98.60;;;;;;5017869;28;20084;-80
2023/07/24 12:30:00;;;;;;;8.40;4.10;;;24.30;96.50;;;;;;5002414;28;20081;-76
2023/07/24 12:32:26;;;;;;;9.23;3.63;;;24.50;99.00;;;;;;5021299;28;20057;-80
2023/07/24 12:34:53;;;;;;;8.32;3.42;;;26.70;96.80;;;;;;5021660;28;20045;-79
2023/07/24 12:37:19;;;;;;;8.38;4.40;;;;;;;;;;5020958;28;20061;-80
2023/07/24 12:39:46;;;;;;;7.88;3.83;;;;;;;;;;5022230;28;20049;-83
2023/07/24 12:42:12;;;;;;;7.18;4.53;;;24.40;98.10;;;;;;5021458;28;20132;-80
2023/07/24 12:44:38;;;;;;;8.93;4.13;;;;;;;;;;5022020;28;20170;-77
2023/07/24 12:47:04;;;;;;;9.27;4.75;;;24.60;96.90;;;;;;5021639;28;20054;-79
2023/07/24 12:49:31;;;;;;;5.45;3.40;;;;;;;;;;5004988;28;20053;-80
2023/07/24 12:51:57;;;;;;;8.32;3.72;;;;;;;;;;5015608;28;20213;-79
2023/07/24 12:54:23;;;;;;;7.35;3.75;;;24.70;95.30;;;;;;5021064;28;20049;-81
2023/07/24 12:56:49;;;;;;;7.40;3.83;;;25.00;94.60;;;;;;5018676;28;20831;-83
2023/07/24 12:59:15;;;;;;;7.93;3.70;;;25.10;97.00;;;;;;4997561;28;20085;-82
2023/07/24 13:01:41;;;;;;;7.93;3.67;;;25.00;94.90;;;;;;5020078;28;20045;-81
2023/07/24 13:04:08;;;;;;;10.88;4.47;;;24.40;93.90;;;;;;5021288;28;20125;-81
2023/07/24 13:06:34;;;;;;;8.57;4.43;;;24.20;93.90;;;;;;5021628;28;20057;-82
2023/07/24 13:09:00;;;;;;;4.80;3.60;;;;;;;;;;5021715;28;20127;-82
2023/07/24 13:11:28;;;;;;;9.02;5.18;;;;;;;;;;5020410;28;20056;-78
2023/07/24 13:13:54;;;;;;;5.70;2.83;;;;;;;;;;5002466;28;20045;-81
2023/07/24 13:16:20;;;;;;;4.97;2.70;;;23.20;94.90;;;;;;5019510;28;20061;-79
2023/07/24 13:18:46;;;;;;;3.58;2.33;;;;;;;;;;5019211;28;20099;-78
2023/07/24 13:21:14;;;;;;;7.10;3.30;;;;;;;;;;5018579;28;20507;-79
2023/07/24 13:23:40;;;;;;;5.95;3.35;;;22.70;96.20;;;;;;5018376;28;20160;-77
2023/07/24 13:26:10;;;;;;;5.80;3.33;;;;;;;;;;5019234;28;20729;-79
2023/07/24 13:28:39;;;;;;;6.50;3.10;;;22.90;96.90;;;;;;5015401;28;20079;-80
2023/07/24 13:31:14;;;;;;;8.77;3.13;;;23.10;97.00;;;;;;5054828;28;20045;-77
2023/07/24 13:33:40;;;;;;;3.42;2.40;;;;;;;;;;5027037;28;20401;-80
2023/07/24 13:36:06;;;;;;;4.90;2.42;;;22.60;98.80;;;;;;5020448;28;20055;-78
2023/07/24 13:38:32;;;;;;;3.95;1.77;;;22.90;97.70;;;;;;4992592;28;20054;-78
2023/07/24 13:40:58;;;;;;;4.53;2.90;;;22.10;99.60;;;;;;5053378;28;20157;-81
2023/07/24 13:43:24;;;;;;;3.33;2.13;;;;;;;;;;5023007;28;20050;-76
2023/07/24 13:45:50;;;;;;;4.30;1.85;;;;;;;;;;5019971;28;20081;-79
2023/07/24 13:48:16;;;;;;;4.38;2.55;;;;;;;;;;5020059;28;20060;-79
2023/07/24 13:50:43;;;;;;;4.43;2.85;;;;;;;;;;5021085;28;20172;-79